sensor_id;sensor_type;location;lat;lon;timestamp;pressure;altitude;pressure_sealevel;temperature;humidity
58243;BME280;50118;53.232;8.252;2023-01-30T00:01:05;101079.41;;;2.92;100.00
58243;BME280;50118;53.232;8.252;2023-01-30T00:03:31;101077.66;;;2.93;100.00
58243;BME280;50118;53.232;8.252;2023-01-30T00:05:58;101062.53;;;2.96;100.00
58243;BME280;50118;53.232;8.252;2023-01-30T00:08:23;101059.50;;;3.03;100.00
58243;BME280;50118;53.232;8.252;2023-01-30T00:10:49;101043.47;;;3.07;100.00
58243;BME280;50118;53.232;8.252;2023-01-30T00:13:14;101047.88;;;3.07;100.00
58243;BME280;50118;53.232;8.252;2023-01-30T00:15:40;101030.41;;;3.06;100.00
58243;BME280;50118;53.232;8.252;2023-01-30T00:18:06;101024.78;;;3.12;100.00
58243;BME280;50118;53.232;8.252;2023-01-30T00:20:32;101024.41;;;3.18;100.00
58243;BME280;50118;53.232;8.252;2023-01-30T00:22:58;101024.97;;;3.09;100.00
58243;BME280;50118;53.232;8.252;2023-01-30T00:25:27;101007.84;;;3.16;100.00
58243;BME280;50118;53.232;8.252;2023-01-30T00:27:53;100992.63;;;3.21;100.00
58243;BME280;50118;53.232;8.252;2023-01-30T00:30:18;100974.38;;;3.18;100.00
58243;BME280;50118;53.232;8.252;2023-01-30T00:32:44;100975.81;;;3.24;100.00
58243;BME280;50118;53.232;8.252;2023-01-30T00:35:09;100970.56;;;3.24;100.00
58243;BME280;50118;53.232;8.252;2023-01-30T00:37:34;100982.59;;;3.28;100.00
58243;BME280;50118;53.232;8.252;2023-01-30T00:40:00;100979.88;;;3.29;100.00
58243;BME280;50118;53.232;8.252;2023-01-30T00:42:25;100970.91;;;3.32;100.00
58243;BME280;50118;53.232;8.252;2023-01-30T00:45:10;100951.47;;;3.34;100.00
58243;BME280;50118;53.232;8.252;2023-01-30T00:47:54;100950.31;;;3.39;100.00
58243;BME280;50118;53.232;8.252;2023-01-30T00:50:20;100936.78;;;3.45;100.00
58243;BME280;50118;53.232;8.252;2023-01-30T00:52:45;100922.88;;;3.43;100.00
58243;BME280;50118;53.232;8.252;2023-01-30T00:55:11;100927.75;;;3.49;100.00
58243;BME280;50118;53.232;8.252;2023-01-30T00:57:36;100927.38;;;3.55;100.00
58243;BME280;50118;53.232;8.252;2023-01-30T01:00:02;100908.94;;;3.55;100.00
58243;BME280;50118;53.232;8.252;2023-01-30T01:02:30;100899.16;;;3.57;100.00
58243;BME280;50118;53.232;8.252;2023-01-30T01:04:55;100891.81;;;3.62;100.00
58243;BME280;50118;53.232;8.252;2023-01-30T01:07:21;100889.16;;;3.62;100.00
58243;BME280;50118;53.232;8.252;2023-01-30T01:09:46;100889.34;;;3.59;100.00
58243;BME280;50118;53.232;8.252;2023-01-30T01:12:11;100873.56;;;3.59;100.00
58243;BME280;50118;53.232;8.252;2023-01-30T01:14:37;100876.09;;;3.75;100.00
58243;BME280;50118;53.232;8.252;2023-01-30T01:17:02;100865.81;;;3.70;100.00
58243;BME280;50118;53.232;8.252;2023-01-30T01:19:28;100865.63;;;3.73;100.00
58243;BME280;50118;53.232;8.252;2023-01-30T01:21:53;100851.50;;;3.74;100.00
58243;BME280;50118;53.232;8.252;2023-01-30T01:24:18;100838.31;;;3.74;100.00
58243;BME280;50118;53.232;8.252;2023-01-30T01:26:44;100851.22;;;3.79;100.00
58243;BME280;50118;53.232;8.252;2023-01-30T01:29:13;100847.94;;;3.76;100.00
58243;BME280;50118;53.232;8.252;2023-01-30T01:31:40;100844.28;;;3.78;100.00
58243;BME280;50118;53.232;8.252;2023-01-30T01:34:06;100845.66;;;3.84;100.00
58243;BME280;50118;53.232;8.252;2023-01-30T01:36:31;100851.03;;;3.82;100.00
58243;BME280;50118;53.232;8.252;2023-01-30T01:38:57;100854.59;;;3.81;100.00
58243;BME280;50118;53.232;8.252;2023-01-30T01:41:22;100848.09;;;3.87;100.00
58243;BME280;50118;53.232;8.252;2023-01-30T01:44:03;100832.94;;;3.90;100.00
58243;BME280;50118;53.232;8.252;2023-01-30T01:46:51;100828.50;;;3.91;100.00
58243;BME280;50118;53.232;8.252;2023-01-30T01:51:59;100846.91;;;4.05;100.00
58243;BME280;50118;53.232;8.252;2023-01-30T01:54:50;100828.56;;;4.04;100.00
58243;BME280;50118;53.232;8.252;2023-01-30T01:57:23;100822.41;;;4.03;100.00
58243;BME280;50118;53.232;8.252;2023-01-30T01:59:57;100806.19;;;4.09;100.00
58243;BME280;50118;53.232;8.252;2023-01-30T02:02:26;100799.03;;;4.11;100.00
58243;BME280;50118;53.232;8.252;2023-01-30T02:04:54;100800.00;;;4.10;100.00
58243;BME280;50118;53.232;8.252;2023-01-30T02:07:38;100802.63;;;4.10;100.00
58243;BME280;50118;53.232;8.252;2023-01-30T02:10:11;100801.66;;;4.11;100.00
58243;BME280;50118;53.232;8.252;2023-01-30T02:12:38;100794.19;;;4.18;100.00
58243;BME280;50118;53.232;8.252;2023-01-30T02:15:05;100789.03;;;4.17;100.00
58243;BME280;50118;53.232;8.252;2023-01-30T02:17:30;100784.47;;;4.19;100.00
58243;BME280;50118;53.232;8.252;2023-01-30T02:20:09;100774.91;;;4.18;100.00
58243;BME280;50118;53.232;8.252;2023-01-30T02:36:53;100745.91;;;4.18;100.00
58243;BME280;50118;53.232;8.252;2023-01-30T02:39:36;100744.44;;;4.26;100.00
58243;BME280;50118;53.232;8.252;2023-01-30T02:44:53;100742.84;;;4.24;100.00
58243;BME280;50118;53.232;8.252;2023-01-30T02:47:56;100745.69;;;4.21;100.00
58243;BME280;50118;53.232;8.252;2023-01-30T02:53:13;100730.94;;;4.31;100.00
58243;BME280;50118;53.232;8.252;2023-01-30T02:55:41;100740.00;;;4.40;100.00
58243;BME280;50118;53.232;8.252;2023-01-30T02:58:07;100734.09;;;4.36;100.00
58243;BME280;50118;53.232;8.252;2023-01-30T03:11:16;100717.63;;;4.45;100.00
58243;BME280;50118;53.232;8.252;2023-01-30T03:14:00;100723.88;;;4.44;100.00
58243;BME280;50118;53.232;8.252;2023-01-30T03:16:35;100724.16;;;4.53;100.00
58243;BME280;50118;53.232;8.252;2023-01-30T03:19:02;100717.94;;;4.54;100.00
58243;BME280;50118;53.232;8.252;2023-01-30T03:21:30;100715.09;;;4.57;100.00
58243;BME280;50118;53.232;8.252;2023-01-30T03:23:56;100716.16;;;4.54;100.00
58243;BME280;50118;53.232;8.252;2023-01-30T03:26:28;100703.16;;;4.64;100.00
58243;BME280;50118;53.232;8.252;2023-01-30T03:28:55;100713.19;;;4.59;100.00
58243;BME280;50118;53.232;8.252;2023-01-30T03:31:20;100708.44;;;4.64;100.00
58243;BME280;50118;53.232;8.252;2023-01-30T03:33:46;100720.13;;;4.73;100.00
58243;BME280;50118;53.232;8.252;2023-01-30T03:36:11;100710.41;;;4.73;100.00
58243;BME280;50118;53.232;8.252;2023-01-30T03:38:37;100721.50;;;4.78;100.00
58243;BME280;50118;53.232;8.252;2023-01-30T03:41:03;100730.28;;;4.79;100.00
58243;BME280;50118;53.232;8.252;2023-01-30T03:43:29;100737.97;;;4.82;100.00
58243;BME280;50118;53.232;8.252;2023-01-30T03:45:55;100758.75;;;4.86;100.00
58243;BME280;50118;53.232;8.252;2023-01-30T03:48:20;100746.75;;;4.82;100.00
58243;BME280;50118;53.232;8.252;2023-01-30T03:50:46;100739.69;;;4.70;100.00
58243;BME280;50118;53.232;8.252;2023-01-30T03:53:11;100742.94;;;4.61;100.00
58243;BME280;50118;53.232;8.252;2023-01-30T03:55:37;100750.66;;;4.51;100.00
58243;BME280;50118;53.232;8.252;2023-01-30T03:58:03;100740.00;;;4.53;100.00
58243;BME280;50118;53.232;8.252;2023-01-30T04:00:29;100748.22;;;4.35;100.00
58243;BME280;50118;53.232;8.252;2023-01-30T04:02:55;100745.06;;;4.30;100.00
58243;BME280;50118;53.232;8.252;2023-01-30T04:05:21;100725.13;;;4.26;100.00
58243;BME280;50118;53.232;8.252;2023-01-30T04:07:48;100741.50;;;4.31;100.00
58243;BME280;50118;53.232;8.252;2023-01-30T04:10:14;100740.44;;;4.21;100.00
58243;BME280;50118;53.232;8.252;2023-01-30T04:12:41;100743.16;;;4.19;100.00
58243;BME280;50118;53.232;8.252;2023-01-30T04:15:07;100750.22;;;4.19;100.00
58243;BME280;50118;53.232;8.252;2023-01-30T04:17:33;100742.44;;;4.17;100.00
58243;BME280;50118;53.232;8.252;2023-01-30T04:19:59;100744.31;;;4.15;100.00
58243;BME280;50118;53.232;8.252;2023-01-30T04:22:24;100741.03;;;4.11;100.00
58243;BME280;50118;53.232;8.252;2023-01-30T04:24:49;100734.00;;;4.12;100.00
58243;BME280;50118;53.232;8.252;2023-01-30T04:27:15;100731.13;;;4.15;100.00
58243;BME280;50118;53.232;8.252;2023-01-30T04:29:40;100726.72;;;4.16;100.00
58243;BME280;50118;53.232;8.252;2023-01-30T04:32:07;100731.75;;;4.19;100.00
58243;BME280;50118;53.232;8.252;2023-01-30T04:34:32;100735.56;;;4.15;100.00
58243;BME280;50118;53.232;8.252;2023-01-30T04:36:57;100728.38;;;4.17;100.00
58243;BME280;50118;53.232;8.252;2023-01-30T04:39:23;100720.28;;;4.20;100.00
58243;BME280;50118;53.232;8.252;2023-01-30T04:41:48;100732.19;;;4.13;100.00
58243;BME280;50118;53.232;8.252;2023-01-30T04:44:14;100739.75;;;4.04;100.00
58243;BME280;50118;53.232;8.252;2023-01-30T04:46:39;100734.50;;;4.04;100.00
58243;BME280;50118;53.232;8.252;2023-01-30T04:49:04;100731.84;;;4.04;100.00
58243;BME280;50118;53.232;8.252;2023-01-30T04:51:30;100719.22;;;4.09;100.00
58243;BME280;50118;53.232;8.252;2023-01-30T04:53:55;100726.19;;;4.10;100.00
58243;BME280;50118;53.232;8.252;2023-01-30T04:56:21;100721.44;;;4.16;100.00
58243;BME280;50118;53.232;8.252;2023-01-30T04:58:46;100717.22;;;4.13;100.00
58243;BME280;50118;53.232;8.252;2023-01-30T05:03:51;100722.28;;;4.16;100.00
58243;BME280;50118;53.232;8.252;2023-01-30T05:06:17;100713.72;;;4.13;100.00
58243;BME280;50118;53.232;8.252;2023-01-30T05:08:42;100716.38;;;4.13;100.00
58243;BME280;50118;53.232;8.252;2023-01-30T05:11:07;100714.88;;;4.08;100.00
58243;BME280;50118;53.232;8.252;2023-01-30T05:13:33;100726.06;;;3.99;100.00
58243;BME280;50118;53.232;8.252;2023-01-30T05:15:58;100729.84;;;3.95;100.00
58243;BME280;50118;53.232;8.252;2023-01-30T05:18:24;100727.94;;;3.97;100.00
58243;BME280;50118;53.232;8.252;2023-01-30T05:20:49;100732.78;;;4.03;100.00
58243;BME280;50118;53.232;8.252;2023-01-30T05:23:15;100736.59;;;3.99;100.00
58243;BME280;50118;53.232;8.252;2023-01-30T05:25:40;100727.75;;;4.00;100.00
58243;BME280;50118;53.232;8.252;2023-01-30T05:28:06;100730.50;;;3.99;100.00
58243;BME280;50118;53.232;8.252;2023-01-30T05:30:31;100745.66;;;3.95;100.00
58243;BME280;50118;53.232;8.252;2023-01-30T05:32:57;100735.72;;;3.86;100.00
58243;BME280;50118;53.232;8.252;2023-01-30T05:35:23;100736.13;;;3.80;100.00
58243;BME280;50118;53.232;8.252;2023-01-30T05:37:52;100737.28;;;3.76;100.00
58243;BME280;50118;53.232;8.252;2023-01-30T05:40:17;100745.38;;;3.72;100.00
58243;BME280;50118;53.232;8.252;2023-01-30T05:42:43;100756.09;;;3.69;100.00
58243;BME280;50118;53.232;8.252;2023-01-30T05:45:09;100757.06;;;3.68;100.00
58243;BME280;50118;53.232;8.252;2023-01-30T05:47:34;100750.44;;;3.76;100.00
58243;BME280;50118;53.232;8.252;2023-01-30T05:50:00;100743.72;;;3.71;100.00
58243;BME280;50118;53.232;8.252;2023-01-30T05:52:25;100743.38;;;3.76;100.00
58243;BME280;50118;53.232;8.252;2023-01-30T05:54:50;100743.28;;;3.78;100.00
58243;BME280;50118;53.232;8.252;2023-01-30T05:57:16;100743.47;;;3.74;100.00
58243;BME280;50118;53.232;8.252;2023-01-30T05:59:41;100753.81;;;3.78;100.00
58243;BME280;50118;53.232;8.252;2023-01-30T06:02:07;100739.16;;;3.73;100.00
58243;BME280;50118;53.232;8.252;2023-01-30T06:04:32;100751.06;;;3.66;100.00
58243;BME280;50118;53.232;8.252;2023-01-30T06:06:57;100749.56;;;3.62;100.00
58243;BME280;50118;53.232;8.252;2023-01-30T06:09:23;100753.34;;;3.58;100.00
58243;BME280;50118;53.232;8.252;2023-01-30T06:11:48;100752.50;;;3.58;100.00
58243;BME280;50118;53.232;8.252;2023-01-30T06:14:16;100752.63;;;3.56;100.00
58243;BME280;50118;53.232;8.252;2023-01-30T06:16:41;100743.56;;;3.60;100.00
58243;BME280;50118;53.232;8.252;2023-01-30T06:19:07;100735.66;;;3.60;100.00
58243;BME280;50118;53.232;8.252;2023-01-30T06:21:33;100743.66;;;3.59;100.00
58243;BME280;50118;53.232;8.252;2023-01-30T06:23:58;100745.34;;;3.60;100.00
58243;BME280;50118;53.232;8.252;2023-01-30T06:26:24;100741.97;;;3.58;100.00
58243;BME280;50118;53.232;8.252;2023-01-30T06:28:49;100753.53;;;3.55;100.00
58243;BME280;50118;53.232;8.252;2023-01-30T06:31:14;100745.09;;;3.50;100.00
58243;BME280;50118;53.232;8.252;2023-01-30T06:33:40;100732.28;;;3.58;100.00
58243;BME280;50118;53.232;8.252;2023-01-30T06:36:08;100737.75;;;3.55;100.00
58243;BME280;50118;53.232;8.252;2023-01-30T06:38:33;100731.31;;;3.59;100.00
58243;BME280;50118;53.232;8.252;2023-01-30T06:40:59;100724.31;;;3.45;100.00
58243;BME280;50118;53.232;8.252;2023-01-30T06:43:25;100730.91;;;3.65;100.00
58243;BME280;50118;53.232;8.252;2023-01-30T06:45:50;100739.63;;;3.53;100.00
58243;BME280;50118;53.232;8.252;2023-01-30T06:48:15;100745.75;;;3.53;100.00
58243;BME280;50118;53.232;8.252;2023-01-30T06:50:41;100742.38;;;3.64;100.00
58243;BME280;50118;53.232;8.252;2023-01-30T06:53:07;100746.19;;;3.60;100.00
58243;BME280;50118;53.232;8.252;2023-01-30T06:55:33;100739.03;;;3.62;100.00
58243;BME280;50118;53.232;8.252;2023-01-30T06:58:07;100744.72;;;3.56;100.00
58243;BME280;50118;53.232;8.252;2023-01-30T07:00:34;100753.00;;;3.50;100.00
58243;BME280;50118;53.232;8.252;2023-01-30T07:02:59;100747.00;;;3.48;100.00
58243;BME280;50118;53.232;8.252;2023-01-30T07:05:25;100745.91;;;3.38;100.00
58243;BME280;50118;53.232;8.252;2023-01-30T07:07:51;100747.66;;;3.37;100.00
58243;BME280;50118;53.232;8.252;2023-01-30T07:10:17;100750.97;;;3.41;100.00
58243;BME280;50118;53.232;8.252;2023-01-30T07:12:44;100747.72;;;3.50;100.00
58243;BME280;50118;53.232;8.252;2023-01-30T07:15:10;100762.97;;;3.45;100.00
58243;BME280;50118;53.232;8.252;2023-01-30T07:17:35;100768.78;;;3.50;100.00
58243;BME280;50118;53.232;8.252;2023-01-30T07:20:00;100755.81;;;3.47;100.00
58243;BME280;50118;53.232;8.252;2023-01-30T07:22:26;100758.34;;;3.48;100.00
58243;BME280;50118;53.232;8.252;2023-01-30T07:24:52;100759.44;;;3.59;100.00
58243;BME280;50118;53.232;8.252;2023-01-30T07:27:18;100763.06;;;3.58;100.00
58243;BME280;50118;53.232;8.252;2023-01-30T07:29:43;100760.09;;;3.62;100.00
58243;BME280;50118;53.232;8.252;2023-01-30T07:32:15;100760.44;;;3.70;100.00
58243;BME280;50118;53.232;8.252;2023-01-30T07:34:42;100752.94;;;3.64;100.00
58243;BME280;50118;53.232;8.252;2023-01-30T07:37:08;100752.75;;;3.67;100.00
58243;BME280;50118;53.232;8.252;2023-01-30T07:39:33;100766.88;;;3.66;100.00
58243;BME280;50118;53.232;8.252;2023-01-30T07:42:00;100774.78;;;3.66;100.00
58243;BME280;50118;53.232;8.252;2023-01-30T07:44:26;100775.31;;;3.71;100.00
58243;BME280;50118;53.232;8.252;2023-01-30T07:46:51;100777.00;;;3.72;100.00
58243;BME280;50118;53.232;8.252;2023-01-30T07:49:16;100769.97;;;3.73;100.00
58243;BME280;50118;53.232;8.252;2023-01-30T07:51:42;100775.09;;;3.74;100.00
58243;BME280;50118;53.232;8.252;2023-01-30T07:54:08;100774.91;;;3.78;100.00
58243;BME280;50118;53.232;8.252;2023-01-30T07:56:33;100787.13;;;3.79;100.00
58243;BME280;50118;53.232;8.252;2023-01-30T07:58:59;100772.63;;;3.86;100.00
58243;BME280;50118;53.232;8.252;2023-01-30T08:01:24;100761.44;;;3.82;100.00
58243;BME280;50118;53.232;8.252;2023-01-30T08:03:50;100763.88;;;3.85;100.00
58243;BME280;50118;53.232;8.252;2023-01-30T08:06:15;100766.41;;;3.87;100.00
58243;BME280;50118;53.232;8.252;2023-01-30T08:08:41;100770.94;;;3.85;100.00
58243;BME280;50118;53.232;8.252;2023-01-30T08:11:07;100759.78;;;3.94;100.00
58243;BME280;50118;53.232;8.252;2023-01-30T08:13:33;100767.59;;;3.96;100.00
58243;BME280;50118;53.232;8.252;2023-01-30T08:16:00;100767.88;;;3.91;100.00
58243;BME280;50118;53.232;8.252;2023-01-30T08:18:27;100759.97;;;3.91;100.00
58243;BME280;50118;53.232;8.252;2023-01-30T08:20:56;100752.16;;;3.89;100.00
58243;BME280;50118;53.232;8.252;2023-01-30T08:23:22;100758.72;;;3.97;100.00
58243;BME280;50118;53.232;8.252;2023-01-30T08:25:47;100758.63;;;3.98;100.00
58243;BME280;50118;53.232;8.252;2023-01-30T08:28:12;100755.03;;;3.99;100.00
58243;BME280;50118;53.232;8.252;2023-01-30T08:30:40;100752.66;;;4.09;100.00
58243;BME280;50118;53.232;8.252;2023-01-30T08:33:05;100753.47;;;4.09;100.00
58243;BME280;50118;53.232;8.252;2023-01-30T08:35:31;100761.00;;;4.16;100.00
58243;BME280;50118;53.232;8.252;2023-01-30T08:37:56;100768.66;;;4.06;100.00
58243;BME280;50118;53.232;8.252;2023-01-30T08:40:22;100761.59;;;4.06;100.00
58243;BME280;50118;53.232;8.252;2023-01-30T08:42:47;100766.03;;;4.06;100.00
58243;BME280;50118;53.232;8.252;2023-01-30T08:45:13;100759.69;;;4.08;100.00
58243;BME280;50118;53.232;8.252;2023-01-30T08:47:38;100769.53;;;4.19;100.00
58243;BME280;50118;53.232;8.252;2023-01-30T08:50:04;100761.63;;;4.19;100.00
58243;BME280;50118;53.232;8.252;2023-01-30T08:52:31;100756.25;;;4.21;100.00
58243;BME280;50118;53.232;8.252;2023-01-30T08:54:57;100760.78;;;4.32;100.00
58243;BME280;50118;53.232;8.252;2023-01-30T08:57:22;100764.69;;;4.39;100.00
58243;BME280;50118;53.232;8.252;2023-01-30T08:59:47;100767.25;;;4.53;100.00
58243;BME280;50118;53.232;8.252;2023-01-30T09:02:16;100765.56;;;4.65;100.00
58243;BME280;50118;53.232;8.252;2023-01-30T09:04:41;100760.28;;;4.65;100.00
58243;BME280;50118;53.232;8.252;2023-01-30T09:07:07;100740.00;;;4.65;100.00
58243;BME280;50118;53.232;8.252;2023-01-30T09:09:32;100758.78;;;4.61;100.00
58243;BME280;50118;53.232;8.252;2023-01-30T09:11:58;100748.03;;;4.64;100.00
58243;BME280;50118;53.232;8.252;2023-01-30T09:14:23;100743.56;;;4.77;100.00
58243;BME280;50118;53.232;8.252;2023-01-30T09:16:49;100757.81;;;4.88;100.00
58243;BME280;50118;53.232;8.252;2023-01-30T09:19:23;100750.94;;;4.85;100.00
58243;BME280;50118;53.232;8.252;2023-01-30T09:21:49;100750.63;;;4.90;100.00
58243;BME280;50118;53.232;8.252;2023-01-30T09:24:15;100762.38;;;4.85;100.00
58243;BME280;50118;53.232;8.252;2023-01-30T09:26:40;100769.09;;;4.90;100.00
58243;BME280;50118;53.232;8.252;2023-01-30T09:29:13;100779.47;;;4.67;100.00
58243;BME280;50118;53.232;8.252;2023-01-30T09:31:39;100777.56;;;4.56;100.00
58243;BME280;50118;53.232;8.252;2023-01-30T09:34:04;100775.78;;;4.57;100.00
58243;BME280;50118;53.232;8.252;2023-01-30T09:36:30;100777.25;;;4.74;100.00
58243;BME280;50118;53.232;8.252;2023-01-30T09:38:55;100767.84;;;4.82;100.00
58243;BME280;50118;53.232;8.252;2023-01-30T09:44:31;100756.56;;;4.80;100.00
58243;BME280;50118;53.232;8.252;2023-01-30T09:55:39;100766.78;;;4.59;100.00
58243;BME280;50118;53.232;8.252;2023-01-30T09:58:20;100764.69;;;4.64;100.00
58243;BME280;50118;53.232;8.252;2023-01-30T10:00:47;100771.88;;;4.75;100.00
58243;BME280;50118;53.232;8.252;2023-01-30T10:03:19;100769.31;;;4.86;100.00
58243;BME280;50118;53.232;8.252;2023-01-30T10:08:34;100772.19;;;4.71;100.00
58243;BME280;50118;53.232;8.252;2023-01-30T10:13:48;100752.78;;;4.59;100.00
58243;BME280;50118;53.232;8.252;2023-01-30T10:16:35;100762.69;;;4.42;100.00
58243;BME280;50118;53.232;8.252;2023-01-30T10:24:27;100731.03;;;4.42;100.00
58243;BME280;50118;53.232;8.252;2023-01-30T10:27:00;100733.56;;;4.57;100.00
58243;BME280;50118;53.232;8.252;2023-01-30T10:29:32;100754.75;;;4.68;100.00
58243;BME280;50118;53.232;8.252;2023-01-30T10:32:08;100756.25;;;4.46;100.00
58243;BME280;50118;53.232;8.252;2023-01-30T10:34:38;100753.50;;;4.22;100.00
58243;BME280;50118;53.232;8.252;2023-01-30T10:42:46;100733.84;;;4.14;100.00
58243;BME280;50118;53.232;8.252;2023-01-30T10:45:16;100737.66;;;4.09;100.00
58243;BME280;50118;53.232;8.252;2023-01-30T10:50:32;100757.50;;;4.28;100.00
58243;BME280;50118;53.232;8.252;2023-01-30T10:55:33;100759.63;;;4.74;100.00
58243;BME280;50118;53.232;8.252;2023-01-30T11:00:38;100755.53;;;5.07;100.00
58243;BME280;50118;53.232;8.252;2023-01-30T11:03:19;100743.88;;;5.22;100.00
58243;BME280;50118;53.232;8.252;2023-01-30T11:05:53;100739.06;;;5.16;100.00
58243;BME280;50118;53.232;8.252;2023-01-30T11:08:23;100764.94;;;5.11;100.00
58243;BME280;50118;53.232;8.252;2023-01-30T11:10:49;100751.66;;;5.37;100.00
58243;BME280;50118;53.232;8.252;2023-01-30T11:13:22;100745.88;;;5.56;100.00
58243;BME280;50118;53.232;8.252;2023-01-30T11:15:53;100757.78;;;5.61;100.00
58243;BME280;50118;53.232;8.252;2023-01-30T11:18:20;100759.50;;;5.63;100.00
58243;BME280;50118;53.232;8.252;2023-01-30T11:20:59;100755.84;;;5.52;100.00
58243;BME280;50118;53.232;8.252;2023-01-30T11:23:31;100761.78;;;5.43;100.00
58243;BME280;50118;53.232;8.252;2023-01-30T11:25:58;100760.81;;;5.44;100.00
58243;BME280;50118;53.232;8.252;2023-01-30T11:28:24;100763.06;;;5.37;100.00
58243;BME280;50118;53.232;8.252;2023-01-30T11:30:56;100761.16;;;5.39;100.00
58243;BME280;50118;53.232;8.252;2023-01-30T11:33:32;100760.41;;;5.50;100.00
58243;BME280;50118;53.232;8.252;2023-01-30T11:36:02;100742.69;;;5.64;100.00
58243;BME280;50118;53.232;8.252;2023-01-30T11:38:36;100759.28;;;5.66;100.00
58243;BME280;50118;53.232;8.252;2023-01-30T11:43:38;100766.75;;;5.96;100.00
58243;BME280;50118;53.232;8.252;2023-01-30T11:46:06;100768.72;;;6.05;100.00
58243;BME280;50118;53.232;8.252;2023-01-30T11:48:33;100768.31;;;5.98;100.00
58243;BME280;50118;53.232;8.252;2023-01-30T11:51:05;100782.75;;;5.82;100.00
58243;BME280;50118;53.232;8.252;2023-01-30T11:53:48;100786.09;;;5.96;100.00
58243;BME280;50118;53.232;8.252;2023-01-30T11:56:24;100795.16;;;5.81;100.00
58243;BME280;50118;53.232;8.252;2023-01-30T11:59:02;100795.81;;;5.72;100.00
58243;BME280;50118;53.232;8.252;2023-01-30T12:01:34;100790.78;;;5.80;100.00
58243;BME280;50118;53.232;8.252;2023-01-30T12:04:05;100782.59;;;5.72;100.00
58243;BME280;50118;53.232;8.252;2023-01-30T12:06:37;100791.50;;;5.71;100.00
58243;BME280;50118;53.232;8.252;2023-01-30T12:09:03;100790.34;;;5.86;100.00
58243;BME280;50118;53.232;8.252;2023-01-30T12:14:44;100796.81;;;5.82;100.00
58243;BME280;50118;53.232;8.252;2023-01-30T12:17:19;100792.94;;;5.75;100.00
58243;BME280;50118;53.232;8.252;2023-01-30T12:22:36;100812.25;;;5.51;100.00
58243;BME280;50118;53.232;8.252;2023-01-30T12:25:09;100828.56;;;5.45;100.00
58243;BME280;50118;53.232;8.252;2023-01-30T12:32:52;100819.22;;;5.28;100.00
58243;BME280;50118;53.232;8.252;2023-01-30T12:35:26;100812.78;;;5.19;100.00
58243;BME280;50118;53.232;8.252;2023-01-30T12:41:01;100820.41;;;5.11;100.00
58243;BME280;50118;53.232;8.252;2023-01-30T12:43:55;100832.78;;;4.98;100.00
58243;BME280;50118;53.232;8.252;2023-01-30T12:51:59;100818.19;;;5.18;100.00
58243;BME280;50118;53.232;8.252;2023-01-30T12:54:56;100818.22;;;5.42;100.00
58243;BME280;50118;53.232;8.252;2023-01-30T12:57:30;100837.81;;;5.64;100.00
58243;BME280;50118;53.232;8.252;2023-01-30T13:08:27;100852.28;;;5.71;100.00
58243;BME280;50118;53.232;8.252;2023-01-30T13:16:25;100872.69;;;5.69;100.00
58243;BME280;50118;53.232;8.252;2023-01-30T13:19:15;100884.22;;;5.68;100.00
58243;BME280;50118;53.232;8.252;2023-01-30T13:21:53;100895.97;;;5.64;100.00
58243;BME280;50118;53.232;8.252;2023-01-30T13:27:17;100897.00;;;5.74;100.00
58243;BME280;50118;53.232;8.252;2023-01-30T13:29:44;100895.91;;;5.76;100.00
58243;BME280;50118;53.232;8.252;2023-01-30T13:34:49;100900.72;;;5.95;100.00
58243;BME280;50118;53.232;8.252;2023-01-30T13:37:18;100909.41;;;5.97;100.00
58243;BME280;50118;53.232;8.252;2023-01-30T13:39:46;100916.41;;;5.98;100.00
58243;BME280;50118;53.232;8.252;2023-01-30T13:44:57;100924.22;;;5.87;100.00
58243;BME280;50118;53.232;8.252;2023-01-30T13:47:45;100929.19;;;5.92;100.00
58243;BME280;50118;53.232;8.252;2023-01-30T14:00:54;100971.94;;;5.86;100.00
58243;BME280;50118;53.232;8.252;2023-01-30T14:03:28;100980.72;;;5.86;100.00
58243;BME280;50118;53.232;8.252;2023-01-30T14:11:04;100998.75;;;5.92;100.00
58243;BME280;50118;53.232;8.252;2023-01-30T14:16:42;101016.66;;;6.02;100.00
58243;BME280;50118;53.232;8.252;2023-01-30T14:19:52;101026.16;;;6.04;100.00
58243;BME280;50118;53.232;8.252;2023-01-30T14:22:20;101036.84;;;6.03;100.00
58243;BME280;50118;53.232;8.252;2023-01-30T14:30:49;101050.22;;;6.01;100.00
58243;BME280;50118;53.232;8.252;2023-01-30T14:38:28;101072.69;;;5.94;100.00
58243;BME280;50118;53.232;8.252;2023-01-30T14:51:27;101114.16;;;5.93;100.00
58243;BME280;50118;53.232;8.252;2023-01-30T14:56:36;101114.72;;;5.98;100.00
58243;BME280;50118;53.232;8.252;2023-01-30T14:59:34;101133.59;;;5.92;100.00
58243;BME280;50118;53.232;8.252;2023-01-30T15:05:08;101160.88;;;5.80;100.00
58243;BME280;50118;53.232;8.252;2023-01-30T15:07:42;101174.00;;;5.69;100.00
58243;BME280;50118;53.232;8.252;2023-01-30T15:15:54;101198.72;;;5.68;100.00
58243;BME280;50118;53.232;8.252;2023-01-30T15:21:50;101207.59;;;5.67;100.00
58243;BME280;50118;53.232;8.252;2023-01-30T15:32:32;101255.16;;;5.67;100.00
58243;BME280;50118;53.232;8.252;2023-01-30T15:35:00;101252.34;;;5.70;100.00
58243;BME280;50118;53.232;8.252;2023-01-30T15:37:57;101266.47;;;5.56;100.00
58243;BME280;50118;53.232;8.252;2023-01-30T15:40:25;101261.28;;;5.54;100.00
58243;BME280;50118;53.232;8.252;2023-01-30T15:43:33;101273.28;;;5.46;100.00
58243;BME280;50118;53.232;8.252;2023-01-30T15:46:15;101280.84;;;5.37;100.00
58243;BME280;50118;53.232;8.252;2023-01-30T15:49:14;101303.25;;;5.32;100.00
58243;BME280;50118;53.232;8.252;2023-01-30T15:51:43;101297.41;;;5.27;100.00
58243;BME280;50118;53.232;8.252;2023-01-30T15:54:10;101293.47;;;5.19;100.00
58243;BME280;50118;53.232;8.252;2023-01-30T15:56:40;101311.56;;;5.11;100.00
58243;BME280;50118;53.232;8.252;2023-01-30T15:59:27;101316.38;;;5.04;100.00